Terminal Aerodrome Forecast
Issued by NWS Portland, OR

Home | Current Version | Previous Version | Text Only | Print | Product List | Glossary On
Versions: 1 2 3 4 5 6 7 8 9 10 11 12 13 14 15 16 17 18 19 20 21 22 23 24 25 26 27
000
FTUS46 KPQR 172320
TAFPDX
TAF
KPDX 172320Z 1800/1824 13018G26KT P6SM -RA BKN050 OVC080
     FM180200 15013G22KT 6SM -RA SCT015 OVC040
     FM180400 17015G25KT P6SM -SHRA SCT015 BKN025 OVC045
     FM180800 19015G25KT P6SM -SHRA SCT015 BKN035 OVC050
     FM181400 20015G25KT 6SM -RA BR BKN025 OVC040
     FM181900 20015G25KT P6SM -SHRA SCT020 BKN035 BKN060=

USA.gov is the U.S. government's official web portal to all federal, state and local government web resources and services.